»·PEaware :: DFGCW KHQM-S23

DFGCW :: KHQM-S23

FLIGHT INFORMATION

Flight Status: Arrived
Operator: Unknown
More flights by this operator :: More flights under this callsign
Pilot: Klaus A. (15485)
Aircraft: PILATUS PC-12 EAGLE
(PC12)
More flights by this aircraft type
Origin: KHQM Bowerman
United States
Destination: S23 Ione Mun
United States
More flights between these airports :: More routes between these airports
Route: +OZALU V27 SEA V120 EAT
File this flight plan on PilotEdge
Remarks:
Altitude:
(Current/Filed)
16,000ft
Speed:
(Current/Filed)
230kts
Departed: 25-Apr-20 08:28 AM
Arrived: 25-Apr-20 09:44 AM
Distance/Time
Traveled:
282nm/1:16
Distance/Time
To Go:
Arrived

Flight Plot

Page will automatically refresh every two minutes.

Flight plan parsing failed; only flown route is shown


Map Options




Map Legend


Flown Route
Filed Route
Departure Airport
Arrival Airport
Navaid (VOR, NDB)
Fix

Horizontal Profiles

Position Reports

Time Latitude Longitude Heading Altitude Ground
Speed
25-Apr-20 08:02 46.973463 -123.929799 170 23ft 0kts
25-Apr-20 08:03 46.973463 -123.929799 170 23ft 0kts
25-Apr-20 08:04 46.973463 -123.929799 170 23ft 0kts
25-Apr-20 08:05 46.973463 -123.929799 170 23ft 0kts
25-Apr-20 08:06 46.973463 -123.929798 170 23ft 0kts
25-Apr-20 08:07 46.973463 -123.929798 170 23ft 0kts
25-Apr-20 08:08 46.973463 -123.929798 170 23ft 0kts
25-Apr-20 08:09 46.973463 -123.929798 170 23ft 0kts
25-Apr-20 08:10 46.973463 -123.929798 170 23ft 0kts
25-Apr-20 08:11 46.973463 -123.929798 170 23ft 0kts
25-Apr-20 08:12 46.973463 -123.929798 170 23ft 0kts
25-Apr-20 08:13 46.973463 -123.929798 170 23ft 0kts
25-Apr-20 08:14 46.973463 -123.929798 170 23ft 0kts
25-Apr-20 08:15 46.973463 -123.929798 170 23ft 0kts
25-Apr-20 08:16 46.973463 -123.929798 170 23ft 0kts
25-Apr-20 08:17 46.973463 -123.929798 170 23ft 0kts
25-Apr-20 08:18 46.973463 -123.929798 170 23ft 0kts
25-Apr-20 08:19 46.973463 -123.929798 170 23ft 0kts
25-Apr-20 08:20 46.973463 -123.929798 170 23ft 0kts
25-Apr-20 08:21 46.973254 -123.928206 80 23ft 12kts
25-Apr-20 08:22 46.973079 -123.927229 129 23ft 0kts
25-Apr-20 08:23 46.973079 -123.927229 129 23ft 0kts
25-Apr-20 08:24 46.973079 -123.927229 129 23ft 0kts
25-Apr-20 08:25 46.973079 -123.927229 129 23ft 0kts
25-Apr-20 08:26 46.972586 -123.927090 212 23ft 4kts
25-Apr-20 08:27 46.972054 -123.951748 269 604ft 95kts
25-Apr-20 08:28 46.979645 -123.994714 337 2099ft 152kts
25-Apr-20 08:29 47.009069 -123.950610 76 3752ft 178kts
25-Apr-20 08:30 47.026032 -123.883258 75 5686ft 174kts
25-Apr-20 08:31 47.042621 -123.813743 75 7309ft 183kts
25-Apr-20 08:32 47.059527 -123.742029 63 8606ft 198kts
25-Apr-20 08:33 47.078478 -123.668235 60 9955ft 199kts
25-Apr-20 08:34 47.099100 -123.591727 60 11162ft 204kts
25-Apr-20 08:36 47.120249 -123.513139 59 12287ft 209kts
25-Apr-20 08:37 47.141769 -123.432914 58 13347ft 213kts
25-Apr-20 08:38 47.163601 -123.351216 58 14337ft 215kts
25-Apr-20 08:39 47.185557 -123.268794 58 15177ft 218kts
25-Apr-20 08:40 47.207843 -123.184818 58 15961ft 221kts
25-Apr-20 08:41 47.230157 -123.100409 57 16688ft 222kts
25-Apr-20 08:42 47.253128 -123.013868 59 17013ft 247kts
25-Apr-20 08:43 47.279262 -122.913849 59 17034ft 273kts
25-Apr-20 08:44 47.307242 -122.806623 60 17033ft 284kts
25-Apr-20 08:45 47.335667 -122.697262 60 17059ft 288kts
25-Apr-20 08:46 47.364410 -122.586168 60 17060ft 289kts
25-Apr-20 08:47 47.392109 -122.478614 60 17061ft 290kts
25-Apr-20 08:48 47.420819 -122.366584 60 17061ft 290kts
25-Apr-20 08:49 47.434964 -122.248541 85 17055ft 303kts
25-Apr-20 08:50 47.433756 -122.123804 85 17055ft 302kts
25-Apr-20 08:51 47.432515 -121.999571 85 17056ft 302kts
25-Apr-20 08:52 47.431261 -121.877247 85 17052ft 298kts
25-Apr-20 08:52 47.429931 -121.774557 85 17058ft 300kts
25-Apr-20 08:54 47.428029 -121.630864 85 17059ft 300kts
25-Apr-20 08:54 47.426562 -121.527910 85 17060ft 301kts
25-Apr-20 08:55 47.424704 -121.405479 85 17061ft 301kts
25-Apr-20 08:57 47.422346 -121.261341 86 17054ft 301kts
25-Apr-20 08:57 47.420548 -121.158321 86 17055ft 300kts
25-Apr-20 08:58 47.418271 -121.034912 86 17056ft 300kts
25-Apr-20 09:00 47.415459 -120.891152 86 17057ft 300kts
25-Apr-20 09:00 47.413330 -120.788076 86 17060ft 300kts
25-Apr-20 09:01 47.410763 -120.665498 85 17053ft 298kts
25-Apr-20 09:02 47.407885 -120.542326 86 17060ft 300kts
25-Apr-20 09:03 47.404935 -120.418828 86 17061ft 301kts
25-Apr-20 09:04 47.401877 -120.295483 86 17054ft 301kts
25-Apr-20 09:05 47.414074 -120.180948 45 17050ft 273kts
25-Apr-20 09:06 47.459836 -120.083421 46 16072ft 299kts
25-Apr-20 09:07 47.507452 -119.981897 46 15492ft 294kts
25-Apr-20 09:08 47.552966 -119.884633 45 15493ft 282kts
25-Apr-20 09:09 47.597264 -119.789671 45 15495ft 278kts
25-Apr-20 09:10 47.640878 -119.695895 45 15487ft 273kts
25-Apr-20 09:11 47.684118 -119.602486 45 15497ft 275kts
25-Apr-20 09:12 47.727460 -119.508590 45 15497ft 275kts
25-Apr-20 09:13 47.770674 -119.414646 45 15497ft 276kts
25-Apr-20 09:14 47.814098 -119.319931 46 15471ft 276kts
25-Apr-20 09:15 47.857273 -119.225413 46 15463ft 275kts
25-Apr-20 09:16 47.900221 -119.131076 46 15464ft 275kts
25-Apr-20 09:17 47.937765 -119.030753 56 15465ft 282kts
25-Apr-20 09:18 47.969647 -118.924269 56 15465ft 280kts
25-Apr-20 09:19 48.001519 -118.817314 56 15466ft 282kts
25-Apr-20 09:20 48.033409 -118.709876 56 15497ft 281kts
25-Apr-20 09:21 48.065055 -118.602811 56 15501ft 282kts
25-Apr-20 09:22 48.096812 -118.494918 57 15116ft 286kts
25-Apr-20 09:23 48.128922 -118.385322 57 14159ft 288kts
25-Apr-20 09:24 48.160787 -118.276069 58 13185ft 289kts
25-Apr-20 09:25 48.192961 -118.165237 59 12194ft 290kts
25-Apr-20 09:26 48.224913 -118.054690 59 11198ft 289kts
25-Apr-20 09:27 48.255042 -117.950487 67 10193ft 253kts
25-Apr-20 09:28 48.281127 -117.859015 68 9166ft 226kts
25-Apr-20 09:29 48.304541 -117.776950 68 8492ft 191kts
25-Apr-20 09:30 48.329974 -117.713938 32 7674ft 188kts
25-Apr-20 09:31 48.375149 -117.671945 33 6858ft 177kts
25-Apr-20 09:32 48.415224 -117.636965 29 6779ft 163kts
25-Apr-20 09:33 48.455332 -117.603112 33 6944ft 165kts
25-Apr-20 09:34 48.493910 -117.566176 32 7230ft 164kts
25-Apr-20 09:35 48.530056 -117.522820 38 7388ft 171kts
25-Apr-20 09:36 48.566265 -117.477736 41 7543ft 168kts
25-Apr-20 09:37 48.598397 -117.426489 58 7549ft 167kts
25-Apr-20 09:38 48.621976 -117.380349 24 6504ft 132kts
25-Apr-20 09:39 48.657851 -117.381391 343 4917ft 133kts
25-Apr-20 09:40 48.693302 -117.388613 356 3458ft 114kts
25-Apr-20 09:41 48.723289 -117.396270 348 3199ft 110kts
25-Apr-20 09:42 48.730047 -117.420506 182 2984ft 110kts
25-Apr-20 09:43 48.706591 -117.412860 134 2112ft 0kts
25-Apr-20 09:44 48.706589 -117.412857 136 2112ft 0kts
25-Apr-20 09:45 48.706589 -117.412857 136 2112ft 0kts
25-Apr-20 09:46 48.706589 -117.412857 136 2112ft 0kts
25-Apr-20 09:47 48.706589 -117.412857 136 2112ft 0kts
25-Apr-20 09:48 48.706589 -117.412857 136 2112ft 0kts
25-Apr-20 09:49 48.706589 -117.412857 136 2112ft 0kts

Navigation Log

Ident Type
Flight plan parsing failed, navigation log unavailable